createdAt,value
2018-10-19T00:00:52.770Z,72.00
2018-10-19T00:03:22.856Z,74.23
2018-10-19T00:05:55.235Z,73.63
2018-10-19T00:08:27.811Z,70.63
2018-10-19T00:11:01.547Z,72.80
2018-10-19T00:13:30.377Z,72.23
2018-10-19T00:16:00.094Z,54.57
2018-10-19T00:18:30.649Z,47.93
2018-10-19T00:20:59.770Z,50.87
2018-10-19T00:23:28.637Z,49.87
2018-10-19T00:26:03.073Z,50.70
2018-10-19T00:28:33.257Z,49.80
2018-10-19T00:31:02.164Z,46.80
2018-10-19T00:33:32.289Z,50.30
2018-10-19T00:36:01.992Z,53.57
2018-10-19T00:38:31.727Z,60.23
2018-10-19T00:41:01.597Z,54.93
2018-10-19T00:43:30.822Z,56.17
2018-10-19T00:45:59.721Z,54.17
2018-10-19T00:48:29.388Z,56.43
2018-10-19T00:50:59.267Z,57.87
2018-10-19T00:53:28.179Z,63.03
2018-10-19T00:55:57.097Z,57.43
2018-10-19T00:58:26.840Z,55.70
2018-10-19T01:00:56.521Z,52.97
2018-10-19T01:03:26.256Z,50.90
2018-10-19T01:05:55.629Z,52.80
2018-10-19T01:08:26.977Z,53.40
2018-10-19T01:10:58.782Z,52.60
2018-10-19T01:13:30.497Z,52.53
2018-10-19T01:16:01.579Z,58.60
2018-10-19T01:18:33.253Z,61.93
2018-10-19T01:21:04.309Z,55.80
2018-10-19T01:23:34.406Z,57.80
2018-10-19T01:26:06.727Z,61.30
2018-10-19T01:28:35.646Z,56.83
2018-10-19T01:31:05.349Z,58.80
2018-10-19T01:33:34.762Z,61.80
2018-10-19T01:36:04.487Z,61.57
2018-10-19T01:38:34.589Z,64.60
2018-10-19T01:41:04.460Z,62.37
2018-10-19T01:43:33.337Z,56.77
2018-10-19T01:46:03.530Z,61.13
2018-10-19T01:48:32.957Z,60.60
2018-10-19T01:51:02.447Z,58.53
2018-10-19T01:53:31.189Z,61.83
2018-10-19T01:56:00.065Z,62.10
2018-10-19T01:58:30.016Z,58.73
2018-10-19T02:00:59.913Z,60.23
2018-10-19T02:03:29.549Z,63.00
2018-10-19T02:05:59.657Z,60.80
2018-10-19T02:08:29.572Z,60.80
2018-10-19T02:10:59.309Z,59.63
2018-10-19T02:13:28.258Z,60.27
2018-10-19T02:15:58.021Z,63.33
2018-10-19T02:18:27.484Z,68.37
2018-10-19T02:20:56.275Z,66.67
2018-10-19T02:23:25.397Z,62.40
2018-10-19T02:25:55.192Z,71.37
2018-10-19T02:28:24.900Z,71.47
2018-10-19T02:30:54.336Z,69.70
2018-10-19T02:33:23.628Z,76.40
2018-10-19T02:35:52.968Z,70.87
2018-10-19T02:38:22.852Z,68.17
2018-10-19T02:40:52.571Z,72.30
2018-10-19T02:43:21.394Z,66.97
2018-10-19T02:45:51.157Z,76.87
2018-10-19T02:48:20.758Z,78.67
2018-10-19T02:50:50.046Z,79.83
2018-10-19T02:53:19.868Z,74.50
2018-10-19T02:55:49.385Z,77.40
2018-10-19T02:58:19.185Z,80.33
2018-10-19T03:00:48.857Z,79.43
2018-10-19T03:03:18.822Z,79.00
2018-10-19T03:05:47.578Z,87.90
2018-10-19T03:08:17.017Z,86.87
2018-10-19T03:10:46.766Z,80.77
2018-10-19T03:13:16.533Z,78.13
2018-10-19T03:15:46.340Z,82.37
2018-10-19T03:18:16.253Z,80.63
2018-10-19T03:20:45.919Z,78.13
2018-10-19T03:23:14.727Z,77.43
2018-10-19T03:25:43.645Z,75.90
2018-10-19T03:28:12.708Z,73.73
2018-10-19T03:30:42.234Z,71.77
2018-10-19T03:33:10.997Z,70.47
2018-10-19T03:35:39.907Z,73.10
2018-10-19T03:38:09.875Z,68.90
2018-10-19T03:40:39.617Z,70.70
2018-10-19T03:43:09.400Z,74.33
2018-10-19T03:45:39.159Z,72.10
2018-10-19T03:48:08.594Z,70.80
2018-10-19T03:50:37.444Z,72.70
2018-10-19T03:53:06.677Z,75.97
2018-10-19T03:55:35.579Z,79.23
2018-10-19T03:58:05.381Z,77.90
2018-10-19T04:00:35.151Z,76.53
2018-10-19T04:03:04.087Z,83.57
2018-10-19T04:05:32.824Z,84.97
2018-10-19T04:08:02.717Z,91.40
2018-10-19T04:10:31.581Z,91.47
2018-10-19T04:13:01.459Z,89.60
2018-10-19T04:15:31.214Z,98.17
2018-10-19T04:18:01.024Z,95.97
2018-10-19T04:20:30.425Z,91.97
2018-10-19T04:23:05.304Z,95.47
2018-10-19T04:25:35.250Z,91.40
2018-10-19T04:28:04.432Z,100.73
2018-10-19T04:30:34.549Z,102.90
2018-10-19T04:33:04.597Z,97.73
2018-10-19T04:35:33.441Z,97.67
2018-10-19T04:38:03.705Z,96.57
2018-10-19T04:40:33.477Z,96.17
2018-10-19T04:43:03.109Z,97.87
2018-10-19T04:45:32.833Z,102.87
2018-10-19T04:48:01.698Z,97.97
2018-10-19T04:50:31.420Z,110.87
2018-10-19T04:53:01.385Z,100.03
2018-10-19T04:55:30.261Z,103.73
2018-10-19T04:57:59.937Z,113.43
2018-10-19T05:00:29.705Z,122.43
2018-10-19T05:02:58.625Z,116.13
2018-10-19T05:05:27.607Z,123.00
2018-10-19T05:07:56.970Z,121.93
2018-10-19T05:10:25.885Z,126.70
2018-10-19T05:12:55.964Z,113.00
2018-10-19T05:15:25.032Z,136.30
2018-10-19T05:17:55.285Z,116.53
2018-10-19T05:20:25.618Z,115.77
2018-10-19T05:22:55.533Z,112.53
2018-10-19T05:25:24.480Z,112.93
2018-10-19T05:27:54.384Z,118.70
2018-10-19T05:30:23.329Z,105.53
2018-10-19T05:32:57.547Z,105.53
2018-10-19T05:35:26.525Z,98.17
2018-10-19T05:38:02.675Z,103.20
2018-10-19T05:40:31.612Z,100.13
2018-10-19T05:43:02.237Z,90.77
2018-10-19T05:45:32.480Z,86.67
2018-10-19T05:48:06.072Z,88.93
2018-10-19T05:50:36.401Z,90.20
2018-10-19T05:53:06.601Z,96.23
2018-10-19T05:55:35.562Z,105.33
2018-10-19T05:58:06.982Z,105.33
2018-10-19T06:00:37.562Z,112.03
2018-10-19T06:03:07.683Z,105.77
2018-10-19T06:05:38.356Z,107.37
2018-10-19T06:08:08.276Z,109.43
2018-10-19T06:10:37.235Z,106.47
2018-10-19T06:13:07.598Z,116.27
2018-10-19T06:15:38.642Z,120.40
2018-10-19T06:18:08.762Z,122.57
2018-10-19T06:20:38.640Z,115.80
2018-10-19T06:23:08.561Z,106.93
2018-10-19T06:25:37.967Z,98.40
2018-10-19T06:28:07.622Z,93.80
2018-10-19T06:30:37.833Z,79.20
2018-10-19T06:33:07.734Z,85.10
2018-10-19T06:35:37.564Z,81.57
2018-10-19T06:38:08.241Z,79.83
2018-10-19T06:40:37.230Z,73.57
2018-10-19T06:43:06.186Z,75.30
2018-10-19T06:45:36.448Z,80.00
2018-10-19T06:48:07.342Z,74.40
2018-10-19T06:50:37.080Z,69.37
2018-10-19T06:53:06.003Z,73.03
2018-10-19T06:55:34.940Z,77.13
2018-10-19T06:58:04.733Z,61.63
2018-10-19T07:00:34.557Z,71.27
2018-10-19T07:03:04.426Z,56.80
2018-10-19T07:05:34.294Z,60.37
2018-10-19T07:08:03.243Z,55.57
2018-10-19T07:10:32.099Z,60.63
2018-10-19T07:13:02.238Z,54.37
2018-10-19T07:15:31.985Z,57.93
2018-10-19T07:18:02.158Z,55.43
2018-10-19T07:20:31.090Z,62.77
2018-10-19T07:23:01.027Z,57.30
2018-10-19T07:25:30.809Z,59.20
2018-10-19T07:28:00.718Z,61.67
2018-10-19T07:30:29.630Z,64.73
2018-10-19T07:32:59.411Z,61.53
2018-10-19T07:35:29.597Z,62.03
2018-10-19T07:38:00.565Z,63.60
2018-10-19T07:40:29.685Z,59.70
2018-10-19T07:42:59.163Z,57.73
2018-10-19T07:45:28.990Z,56.10
2018-10-19T07:47:59.870Z,56.97
2018-10-19T07:50:29.056Z,55.37
2018-10-19T07:52:59.272Z,56.03
2018-10-19T07:55:28.198Z,55.77
2018-10-19T07:57:57.822Z,61.70
2018-10-19T08:00:27.723Z,59.33
2018-10-19T08:02:56.668Z,57.53
2018-10-19T08:05:26.421Z,53.73
2018-10-19T08:07:56.163Z,55.93
2018-10-19T08:10:25.559Z,58.20
2018-10-19T08:12:55.073Z,54.27
2018-10-19T08:15:24.865Z,54.33
2018-10-19T08:17:55.044Z,55.70
2018-10-19T08:20:25.637Z,56.67
2018-10-19T08:22:57.286Z,57.10
2018-10-19T08:25:26.656Z,56.67
2018-10-19T08:27:55.859Z,56.33
2018-10-19T08:30:26.004Z,56.63
2018-10-19T08:32:56.814Z,56.83
2018-10-19T08:35:26.390Z,57.93
2018-10-19T08:38:03.399Z,53.02
2018-10-19T08:40:33.195Z,56.00
2018-10-19T08:43:03.350Z,54.23
2018-10-19T08:45:32.324Z,52.55
2018-10-19T08:48:02.337Z,56.08
2018-10-19T08:50:32.182Z,56.98
2018-10-19T08:53:01.088Z,57.20
2018-10-19T08:55:29.981Z,56.48
2018-10-19T08:57:58.963Z,55.12
2018-10-19T09:00:27.827Z,55.50
2018-10-19T09:02:57.718Z,57.62
2018-10-19T09:05:34.771Z,54.95
2018-10-19T09:08:03.986Z,55.35
2018-10-19T09:10:42.491Z,58.78
2018-10-19T09:13:23.348Z,56.15
2018-10-19T09:15:55.834Z,56.30
2018-10-19T09:18:28.447Z,59.10
2018-10-19T09:21:01.806Z,53.20
2018-10-19T09:23:30.857Z,52.75
2018-10-19T09:26:00.804Z,55.43
2018-10-19T09:28:30.770Z,55.35
2018-10-19T09:31:00.496Z,53.40
2018-10-19T09:33:29.833Z,54.35
2018-10-19T09:35:59.318Z,55.73
2018-10-19T09:38:28.269Z,53.20
2018-10-19T09:40:57.400Z,55.75
2018-10-19T09:43:26.260Z,56.15
2018-10-19T09:45:56.061Z,56.45
2018-10-19T09:48:26.012Z,57.45
2018-10-19T09:50:55.849Z,56.85
2018-10-19T09:53:24.807Z,56.50
2018-10-19T09:55:57.245Z,57.03
2018-10-19T09:58:39.853Z,54.98
2018-10-19T10:01:21.059Z,50.08
2018-10-19T10:03:50.842Z,51.60
2018-10-19T10:06:20.103Z,53.05
2018-10-19T10:08:49.816Z,51.25
2018-10-19T10:11:19.779Z,51.37
2018-10-19T10:13:50.153Z,51.68
2018-10-19T10:16:20.146Z,50.83
2018-10-19T10:18:50.210Z,53.75
2018-10-19T10:21:21.286Z,52.50
2018-10-19T10:23:57.743Z,52.20
2018-10-19T10:26:27.645Z,54.40
2018-10-19T10:28:59.217Z,52.78
2018-10-19T10:34:41.382Z,49.77
2018-10-19T10:37:11.272Z,52.58
2018-10-19T10:39:40.245Z,48.48
2018-10-19T10:42:10.984Z,48.58
2018-10-19T10:45:07.177Z,50.75
2018-10-19T10:47:52.761Z,50.58
2018-10-19T10:50:21.989Z,46.75
2018-10-19T10:52:52.193Z,46.58
2018-10-19T10:55:43.306Z,48.85
2018-10-19T10:58:20.877Z,47.00
2018-10-19T11:01:00.131Z,48.87
2018-10-19T11:03:37.719Z,48.40
2018-10-19T11:06:06.783Z,49.40
2018-10-19T11:08:36.627Z,47.05
2018-10-19T11:11:10.584Z,42.73
2018-10-19T11:13:41.341Z,41.58
2018-10-19T11:16:12.413Z,42.88
2018-10-19T11:18:41.683Z,38.60
2018-10-19T11:21:11.525Z,41.68
2018-10-19T11:23:41.429Z,39.10
2018-10-19T11:26:11.528Z,41.20
2018-10-19T11:28:40.430Z,39.67
2018-10-19T11:31:10.378Z,41.40
2018-10-19T11:33:39.164Z,39.33
2018-10-19T11:36:08.053Z,38.25
2018-10-19T11:38:36.960Z,35.35
2018-10-19T11:41:05.897Z,33.80
2018-10-19T11:43:34.849Z,38.40
2018-10-19T11:46:03.781Z,42.58
2018-10-19T11:48:32.676Z,40.60
2018-10-19T11:51:02.721Z,41.90
2018-10-19T11:53:32.610Z,42.10
2018-10-19T11:56:02.381Z,40.05
2018-10-19T11:58:32.432Z,43.50
2018-10-19T12:01:01.461Z,41.13
2018-10-19T12:03:30.433Z,41.10
2018-10-19T12:05:59.376Z,39.85
2018-10-19T12:08:29.207Z,40.05
2018-10-19T12:10:59.036Z,38.75
2018-10-19T12:13:30.901Z,40.10
2018-10-19T12:16:00.038Z,39.90
2018-10-19T12:18:28.934Z,41.65
2018-10-19T12:20:59.239Z,37.78
2018-10-19T12:23:28.031Z,38.48
2018-10-19T12:25:56.979Z,37.83
2018-10-19T12:28:25.898Z,36.40
2018-10-19T12:30:54.847Z,36.00
2018-10-19T12:33:23.798Z,38.53
2018-10-19T12:35:52.760Z,37.17
2018-10-19T12:38:22.593Z,35.85
2018-10-19T12:40:52.873Z,33.70
2018-10-19T12:43:22.552Z,37.15
2018-10-19T12:46:31.909Z,34.38
2018-10-19T12:49:01.785Z,37.20
2018-10-19T12:51:30.691Z,35.80
2018-10-19T12:54:00.536Z,38.02
2018-10-19T12:56:29.365Z,36.17
2018-10-19T12:58:59.301Z,35.73
2018-10-19T13:01:29.993Z,36.77
2018-10-19T13:03:59.715Z,37.35
2018-10-19T13:06:28.931Z,38.02
2018-10-19T13:08:59.245Z,37.45
2018-10-19T13:11:28.468Z,36.00
2018-10-19T13:13:58.091Z,35.60
2018-10-19T13:16:28.625Z,37.00
2018-10-19T13:19:13.104Z,34.45
2018-10-19T13:24:27.306Z,36.90
2018-10-19T13:26:58.523Z,37.73
2018-10-19T13:29:43.233Z,38.28
2018-10-19T13:32:13.079Z,35.55
2018-10-19T13:34:43.854Z,35.65
2018-10-19T13:37:16.099Z,36.88
2018-10-19T13:39:46.654Z,36.13
2018-10-19T13:42:18.415Z,37.25
2018-10-19T13:44:50.045Z,38.90
2018-10-19T13:47:32.861Z,38.00
2018-10-19T13:50:02.111Z,37.35
2018-10-19T13:52:32.466Z,37.58
2018-10-19T13:56:25.604Z,38.45
2018-10-19T13:58:55.420Z,35.00
2018-10-19T14:01:24.449Z,41.28
2018-10-19T14:03:54.343Z,39.27
2018-10-19T14:06:24.156Z,39.23
2018-10-19T14:08:53.966Z,35.73
2018-10-19T14:11:23.012Z,37.98
2018-10-19T14:13:52.305Z,37.33
2018-10-19T14:16:22.098Z,36.42
2018-10-19T14:19:06.668Z,38.70
2018-10-19T14:21:35.922Z,37.28
2018-10-19T14:24:05.654Z,37.03
2018-10-19T14:26:35.552Z,37.33
2018-10-19T14:29:04.545Z,36.98
2018-10-19T14:31:33.581Z,35.50
2018-10-19T14:34:02.912Z,48.05
2018-10-19T14:36:32.406Z,50.50
2018-10-19T14:39:02.283Z,52.75
2018-10-19T14:41:31.186Z,54.45
2018-10-19T14:44:01.108Z,55.67
2018-10-19T14:46:30.984Z,58.63
2018-10-19T14:49:00.907Z,57.65
2018-10-19T14:51:29.753Z,57.73
2018-10-19T14:53:59.588Z,59.97
2018-10-19T14:56:29.724Z,57.60
2018-10-19T14:58:59.632Z,59.93
2018-10-19T15:01:28.585Z,57.97
2018-10-19T15:03:58.305Z,59.73
2018-10-19T15:06:28.102Z,57.40
2018-10-19T15:08:57.632Z,57.63
2018-10-19T15:11:26.958Z,58.33
2018-10-19T15:13:59.259Z,55.80
2018-10-19T15:16:28.426Z,58.57
2018-10-19T15:18:57.877Z,61.40
2018-10-19T15:21:27.429Z,61.50
2018-10-19T15:23:57.254Z,62.20
2018-10-19T15:26:26.125Z,64.33
2018-10-19T15:28:55.031Z,58.53
2018-10-19T15:31:23.951Z,61.07
2018-10-19T15:33:57.824Z,63.10
2018-10-19T15:36:26.966Z,61.37
2018-10-19T15:38:55.824Z,64.67
2018-10-19T15:41:24.631Z,61.97
2018-10-19T15:43:54.321Z,63.00
2018-10-19T15:46:28.464Z,63.37
2018-10-19T15:48:59.639Z,64.40
2018-10-19T15:51:29.571Z,63.43
2018-10-19T15:53:58.538Z,66.87
2018-10-19T15:56:30.745Z,64.77
2018-10-19T15:59:04.649Z,69.07
2018-10-19T16:01:47.160Z,68.07
2018-10-19T16:04:34.725Z,70.80
2018-10-19T16:07:04.008Z,69.50
2018-10-19T16:09:47.210Z,71.57
2018-10-19T16:12:21.397Z,74.63
2018-10-19T16:14:51.880Z,72.80
2018-10-19T16:17:37.816Z,70.50
2018-10-19T16:20:26.937Z,72.17
2018-10-19T16:23:10.680Z,71.13
2018-10-19T16:25:39.893Z,72.93
2018-10-19T16:28:17.714Z,74.90
2018-10-19T16:30:56.058Z,75.77
2018-10-19T16:33:31.414Z,73.30
2018-10-19T16:36:02.435Z,74.80
2018-10-19T16:38:31.288Z,71.90
2018-10-19T16:41:00.745Z,72.87
2018-10-19T16:43:30.181Z,75.00
2018-10-19T16:45:59.988Z,75.47
2018-10-19T16:48:29.680Z,83.50
2018-10-19T16:50:59.603Z,78.20
2018-10-19T16:53:28.417Z,71.83
2018-10-19T16:55:57.302Z,71.77
2018-10-19T16:58:27.460Z,84.80
2018-10-19T17:00:56.405Z,83.57
2018-10-19T17:03:25.831Z,78.97
2018-10-19T17:05:54.705Z,78.23
2018-10-19T17:08:23.661Z,82.67
2018-10-19T17:10:52.549Z,83.17
2018-10-19T17:13:21.460Z,85.33
2018-10-19T17:15:51.201Z,81.63
2018-10-19T17:18:20.106Z,85.20
2018-10-19T17:20:49.992Z,86.00
2018-10-19T17:23:19.805Z,82.33
2018-10-19T17:25:49.656Z,85.67
2018-10-19T17:28:19.345Z,88.17
2018-10-19T17:30:48.266Z,87.47
2018-10-19T17:33:17.240Z,84.70
2018-10-19T17:35:46.104Z,88.27
2018-10-19T17:38:15.777Z,89.37
2018-10-19T17:40:45.295Z,88.30
2018-10-19T17:43:15.088Z,84.67
2018-10-19T17:45:43.933Z,85.20
2018-10-19T17:48:13.891Z,87.57
2018-10-19T17:50:42.813Z,91.53
2018-10-19T17:53:12.645Z,93.30
2018-10-19T17:55:41.546Z,93.97
2018-10-19T17:58:11.343Z,89.23
2018-10-19T18:00:40.118Z,90.00
2018-10-19T18:03:09.905Z,94.17
2018-10-19T18:05:38.828Z,91.90
2018-10-19T18:08:08.658Z,94.13
2018-10-19T18:10:37.553Z,95.73
2018-10-19T18:13:07.226Z,95.03
2018-10-19T18:15:37.034Z,93.83
2018-10-19T18:18:06.073Z,91.83
2018-10-19T18:20:35.892Z,88.33
2018-10-19T18:23:05.744Z,93.83
2018-10-19T18:25:34.606Z,92.40
2018-10-19T18:28:03.444Z,88.83
2018-10-19T18:30:32.318Z,92.43
2018-10-19T18:33:02.138Z,94.57
2018-10-19T18:35:31.877Z,92.20
2018-10-19T18:38:01.624Z,86.97
2018-10-19T18:40:30.525Z,90.63
2018-10-19T18:43:00.339Z,92.87
2018-10-19T18:45:30.124Z,94.17
2018-10-19T18:47:59.888Z,89.53
2018-10-19T18:50:29.733Z,87.93
2018-10-19T18:52:58.643Z,89.23
2018-10-19T18:55:27.548Z,88.50
2018-10-19T18:57:57.231Z,92.40
2018-10-19T19:00:26.005Z,90.20
2018-10-19T19:02:54.889Z,93.30
2018-10-19T19:05:24.680Z,88.03
2018-10-19T19:07:53.613Z,90.83
2018-10-19T19:10:22.529Z,85.93
2018-10-19T19:12:57.402Z,92.20
2018-10-19T19:15:27.164Z,87.50
2018-10-19T19:17:56.880Z,86.20
2018-10-19T19:20:27.432Z,91.70
2018-10-19T19:22:56.269Z,88.77
2018-10-19T19:25:30.220Z,95.57
2018-10-19T19:28:00.090Z,91.03
2018-10-19T19:30:29.962Z,88.67
2018-10-19T19:33:03.945Z,88.67
2018-10-19T19:35:33.710Z,96.97
2018-10-19T19:38:03.527Z,90.60
2018-10-19T19:40:37.486Z,89.93
2018-10-19T19:43:07.272Z,86.80
2018-10-19T19:45:36.043Z,86.43
2018-10-19T19:48:11.008Z,89.57
2018-10-19T19:50:39.909Z,86.67
2018-10-19T19:53:09.869Z,96.27
2018-10-19T19:55:38.768Z,102.63
2018-10-19T19:58:07.649Z,89.57
2018-10-19T20:00:36.530Z,94.40
2018-10-19T20:03:06.217Z,92.40
2018-10-19T20:05:36.160Z,88.80
2018-10-19T20:08:06.255Z,100.90
2018-10-19T20:10:35.868Z,105.57
2018-10-19T20:13:05.993Z,103.70
2018-10-19T20:15:35.349Z,101.03
2018-10-19T20:18:04.364Z,95.00
2018-10-19T20:20:33.307Z,97.70
2018-10-19T20:23:02.203Z,102.27
2018-10-19T20:25:31.049Z,94.50
2018-10-19T20:28:01.214Z,93.90
2018-10-19T20:30:31.138Z,96.83
2018-10-19T20:33:01.457Z,98.43
2018-10-19T20:35:31.882Z,107.60
2018-10-19T20:38:01.784Z,115.07
2018-10-19T20:40:30.720Z,118.30
2018-10-19T20:43:00.516Z,116.33
2018-10-19T20:45:30.291Z,130.23
2018-10-19T20:48:00.092Z,142.23
2018-10-19T20:50:29.849Z,134.57
2018-10-19T20:52:59.811Z,123.03
2018-10-19T20:55:28.778Z,122.10
2018-10-19T20:57:57.645Z,134.97
2018-10-19T21:00:27.556Z,125.70
2018-10-19T21:02:57.050Z,118.57
2018-10-19T21:05:25.960Z,117.63
2018-10-19T21:07:55.873Z,114.70
2018-10-19T21:10:24.792Z,121.53
2018-10-19T21:12:53.712Z,113.47
2018-10-19T21:15:23.873Z,120.00
2018-10-19T21:17:52.778Z,120.07
2018-10-19T21:20:22.578Z,111.23
2018-10-19T21:22:51.902Z,120.60
2018-10-19T21:25:20.848Z,119.63
2018-10-19T21:27:50.918Z,122.30
2018-10-19T21:30:20.780Z,113.83
2018-10-19T21:32:49.700Z,115.93
2018-10-19T21:35:18.641Z,118.83
2018-10-19T21:37:47.529Z,116.63
2018-10-19T21:40:16.977Z,110.27
2018-10-19T21:42:46.849Z,113.97
2018-10-19T21:45:16.700Z,120.17
2018-10-19T21:47:46.840Z,125.70
2018-10-19T21:50:16.552Z,122.87
2018-10-19T21:52:45.745Z,120.20
2018-10-19T21:55:15.636Z,122.00
2018-10-19T21:57:45.272Z,124.00
2018-10-19T22:00:15.206Z,122.60
2018-10-19T22:02:46.800Z,111.67
2018-10-19T22:05:16.885Z,117.40
2018-10-19T22:07:46.921Z,121.07
2018-10-19T22:10:19.113Z,119.33
2018-10-19T22:12:49.272Z,115.37
2018-10-19T22:15:19.768Z,118.70
2018-10-19T22:17:48.513Z,120.07
2018-10-19T22:20:17.436Z,110.37
2018-10-19T22:22:47.395Z,108.87
2018-10-19T22:25:17.326Z,109.33
2018-10-19T22:27:46.934Z,115.37
2018-10-19T22:30:17.064Z,109.90
2018-10-19T22:32:46.919Z,113.40
2018-10-19T22:35:16.073Z,110.23
2018-10-19T22:37:45.428Z,118.37
2018-10-19T22:40:15.475Z,115.17
2018-10-19T22:42:45.716Z,111.17
2018-10-19T22:45:15.448Z,121.43
2018-10-19T22:47:45.348Z,126.83
2018-10-19T22:50:14.841Z,127.93
2018-10-19T22:52:44.273Z,136.33
2018-10-19T22:55:15.049Z,130.10
2018-10-19T22:57:44.974Z,128.60
2018-10-19T23:00:14.760Z,127.13
2018-10-19T23:02:43.664Z,131.30
2018-10-19T23:05:13.592Z,126.87
2018-10-19T23:07:42.473Z,123.53
2018-10-19T23:10:12.246Z,129.23
2018-10-19T23:12:42.012Z,116.63
2018-10-19T23:15:11.793Z,130.73
2018-10-19T23:17:41.833Z,115.30
2018-10-19T23:20:10.693Z,120.67
2018-10-19T23:22:39.632Z,116.80
2018-10-19T23:25:09.447Z,116.13
2018-10-19T23:27:39.430Z,117.43
2018-10-19T23:30:09.358Z,112.13
2018-10-19T23:32:38.796Z,118.27
2018-10-19T23:35:08.927Z,109.60
2018-10-19T23:37:37.885Z,92.83
2018-10-19T23:40:07.394Z,77.07
2018-10-19T23:42:37.212Z,78.87
2018-10-19T23:45:07.992Z,91.47
2018-10-19T23:47:38.372Z,86.17
2018-10-19T23:50:09.251Z,120.23
2018-10-19T23:52:39.081Z,147.93
2018-10-19T23:55:09.054Z,134.60
2018-10-19T23:57:38.019Z,135.23
